Time;durP1;ratioP1;P1;durP2;ratioP2;P2;SDS_P1;SDS_P2;PMS_P1;PMS_P2;Temp;Humidity;BMP_temperature;BMP_pressure;BME280_temperature;BME280_humidity;BME280_pressure;Samples;Min_cycle;Max_cycle;Signal;HPM_P1;HPM_P2
2023/03/19 00:00:17;;;;;;;;;;;;;;;10.11;88.28;100971.28;4957358;28;5044;-77
2023/03/19 00:02:48;;;;;;;;;;;;;;;10.11;88.27;100975.66;4957169;28;1955;-76
2023/03/19 00:05:13;;;;;;;;;;;;;;;10.10;87.39;100982.59;4937154;28;1461;-76
2023/03/19 00:07:38;;;;;;;;;;;;;;;10.07;87.95;100980.22;4937124;28;1491;-77
2023/03/19 00:10:04;;;;;;;;;;;;;;;10.05;88.27;100982.13;4955433;28;1508;-77
2023/03/19 00:12:30;;;;;;;;;;;;;;;10.05;88.68;100992.50;4937193;28;1596;-77
2023/03/19 00:14:55;;;;;;;;;;;;;;;10.05;88.46;100982.13;4951851;28;1643;-76
2023/03/19 00:17:21;;;;;;;;;;;;;;;10.06;88.25;100994.13;4957341;28;1280;-77
2023/03/19 00:19:46;;;;;;;;;;;;;;;10.07;88.67;100989.78;4953600;28;1679;-78
2023/03/19 00:22:11;;;;;;;;;;;;;;;10.06;88.52;100994.13;4949587;28;1899;-78
2023/03/19 00:24:37;;;;;;;;;;;;;;;10.05;89.20;100991.69;4950811;28;2258;-78
2023/03/19 00:27:02;;;;;;;;;;;;;;;10.04;89.05;100990.84;4933122;29;1486;-77
2023/03/19 00:29:27;;;;;;;;;;;;;;;10.03;89.03;100994.38;4945620;28;1664;-77
2023/03/19 00:31:53;;;;;;;;;;;;;;;10.02;88.94;100992.72;4947441;28;1082;-77
2023/03/19 00:34:18;;;;;;;;;;;;;;;10.03;88.57;100994.38;4931563;28;1177;-77
2023/03/19 00:36:44;;;;;;;;;;;;;;;10.03;89.36;100990.94;4951281;28;1719;-77
2023/03/19 00:39:09;;;;;;;;;;;;;;;10.01;89.24;100991.06;4953119;28;1885;-77
2023/03/19 00:41:34;;;;;;;;;;;;;;;10.01;88.89;100991.06;4949681;28;1494;-77
2023/03/19 00:44:00;;;;;;;;;;;;;;;10.01;89.09;100991.06;4948136;28;1985;-77
2023/03/19 00:46:26;;;;;;;;;;;;;;;10.01;88.88;100993.66;4954498;28;1864;-77
2023/03/19 00:48:54;;;;;;;;;;;;;;;10.02;89.32;101000.50;4948882;28;1112;-77
2023/03/19 00:51:19;;;;;;;;;;;;;;;10.04;89.15;100996.03;4932149;28;1632;-77
2023/03/19 00:53:44;;;;;;;;;;;;;;;10.06;88.57;100999.31;4947787;28;1426;-77
2023/03/19 00:56:11;;;;;;;;;;;;;;;10.08;88.59;100997.44;4938114;28;1519;-77
2023/03/19 00:58:39;;;;;;;;;;;;;;;10.09;88.52;101001.69;4934596;29;1536;-77
2023/03/19 01:01:06;;;;;;;;;;;;;;;10.08;88.45;100991.41;4936451;28;5003;-77
2023/03/19 01:03:31;;;;;;;;;;;;;;;10.08;88.66;100992.25;4951539;28;1894;-78
2023/03/19 01:05:56;;;;;;;;;;;;;;;10.08;89.07;100997.44;4959412;28;1493;-77
2023/03/19 01:08:22;;;;;;;;;;;;;;;10.05;88.86;100997.69;4950109;28;1240;-77
2023/03/19 01:10:47;;;;;;;;;;;;;;;10.03;89.15;100999.53;4955619;28;1323;-77
2023/03/19 01:13:12;;;;;;;;;;;;;;;10.03;88.77;100998.72;4929099;28;1740;-77
2023/03/19 01:15:38;;;;;;;;;;;;;;;10.01;88.72;101001.44;4934118;28;1441;-77
2023/03/19 01:18:04;;;;;;;;;;;;;;;9.97;89.21;100994.84;4952108;28;1251;-77
2023/03/19 01:20:29;;;;;;;;;;;;;;;9.96;88.46;100988.00;4955697;28;2119;-78
2023/03/19 01:22:54;;;;;;;;;;;;;;;9.92;89.20;100991.78;4950472;28;1898;-77
2023/03/19 01:25:20;;;;;;;;;;;;;;;9.91;88.83;100999.66;4934260;28;1450;-78
2023/03/19 01:27:45;;;;;;;;;;;;;;;9.87;89.13;100993.91;4937904;28;1224;-77
2023/03/19 01:30:10;;;;;;;;;;;;;;;9.84;89.16;100988.94;4952186;28;1275;-77
2023/03/19 01:32:36;;;;;;;;;;;;;;;9.82;89.49;100990.84;4955906;28;1295;-77
2023/03/19 01:35:01;;;;;;;;;;;;;;;9.81;89.22;100989.19;4958110;28;1484;-77
2023/03/19 01:37:27;;;;;;;;;;;;;;;9.80;89.36;100992.69;4942158;28;1224;-77
2023/03/19 01:39:52;;;;;;;;;;;;;;;9.77;89.17;100995.53;4955604;28;1318;-77
2023/03/19 01:42:17;;;;;;;;;;;;;;;9.73;89.70;100991.50;4951424;28;1994;-76
2023/03/19 01:44:43;;;;;;;;;;;;;;;9.70;90.14;100989.19;4955739;28;1318;-77
2023/03/19 01:47:17;;;;;;;;;;;;;;;9.68;89.54;100991.84;4952551;28;1306;-77
2023/03/19 01:49:44;;;;;;;;;;;;;;;9.67;90.38;100991.97;4948398;28;1335;-77
2023/03/19 01:52:11;;;;;;;;;;;;;;;9.65;90.49;100989.50;4939519;28;1317;-77
2023/03/19 01:54:36;;;;;;;;;;;;;;;9.64;90.45;100987.88;4935500;28;1438;-77
2023/03/19 01:57:07;;;;;;;;;;;;;;;9.64;90.85;100995.63;4940956;28;1290;-77
2023/03/19 01:59:35;;;;;;;;;;;;;;;9.62;90.67;100992.31;4954395;28;1202;-77
2023/03/19 02:02:02;;;;;;;;;;;;;;;9.63;90.43;100996.56;4935626;28;5059;-77
2023/03/19 02:04:28;;;;;;;;;;;;;;;9.62;90.76;100996.69;4956223;28;1317;-77
2023/03/19 02:06:55;;;;;;;;;;;;;;;9.62;90.79;100994.09;4958278;28;1107;-77
2023/03/19 02:09:20;;;;;;;;;;;;;;;9.62;90.93;100986.31;4949437;28;1505;-77
2023/03/19 02:11:46;;;;;;;;;;;;;;;9.62;90.46;100983.72;4958526;28;1247;-76
2023/03/19 02:14:12;;;;;;;;;;;;;;;9.65;90.72;100983.50;4951371;28;1310;-77
2023/03/19 02:16:37;;;;;;;;;;;;;;;9.64;90.70;100984.47;4953726;28;2328;-77
2023/03/19 02:19:03;;;;;;;;;;;;;;;9.64;90.74;100987.03;4956499;28;1246;-77
2023/03/19 02:21:28;;;;;;;;;;;;;;;9.62;91.20;100981.97;4954573;28;1164;-77
2023/03/19 02:24:26;;;;;;;;;;;;;;;9.61;90.70;100982.09;4957924;28;1968;-78
2023/03/19 02:26:51;;;;;;;;;;;;;;;9.60;91.25;100990.78;4927158;28;1548;-77
2023/03/19 02:29:16;;;;;;;;;;;;;;;9.61;91.59;100987.25;4936782;28;1198;-77
2023/03/19 02:31:42;;;;;;;;;;;;;;;9.61;91.26;100992.44;4950532;28;1441;-76
2023/03/19 02:34:20;;;;;;;;;;;;;;;9.60;91.75;101001.16;4952908;28;1258;-77
2023/03/19 02:36:51;;;;;;;;;;;;;;;9.58;91.51;100991.75;4955753;28;1250;-76
2023/03/19 02:39:24;;;;;;;;;;;;;;;9.61;92.06;100997.63;4950254;28;1485;-76
2023/03/19 02:41:50;;;;;;;;;;;;;;;9.59;92.31;100995.16;4936720;28;1903;-77
2023/03/19 02:44:18;;;;;;;;;;;;;;;9.58;91.88;100993.50;4957656;28;1511;-78
2023/03/19 02:46:44;;;;;;;;;;;;;;;9.56;91.36;100996.19;4932570;29;2283;-77
2023/03/19 02:49:10;;;;;;;;;;;;;;;9.56;92.10;100998.78;4953305;28;1183;-76
2023/03/19 02:51:36;;;;;;;;;;;;;;;9.56;91.30;101006.56;4935148;28;1490;-77
2023/03/19 02:54:01;;;;;;;;;;;;;;;9.53;91.50;101004.19;4958935;28;1389;-77
2023/03/19 02:56:27;;;;;;;;;;;;;;;9.53;91.82;101001.63;4953210;28;1290;-77
2023/03/19 02:58:52;;;;;;;;;;;;;;;9.53;92.35;101001.63;4958070;28;1297;-77
2023/03/19 03:01:17;;;;;;;;;;;;;;;9.53;92.14;101009.38;4957062;28;5010;-77
2023/03/19 03:03:43;;;;;;;;;;;;;;;9.53;93.55;101006.78;4957105;28;1961;-76
2023/03/19 03:06:08;;;;;;;;;;;;;;;9.52;92.56;101005.16;4958916;28;1464;-77
2023/03/19 03:08:33;;;;;;;;;;;;;;;9.52;92.96;101015.50;4936046;28;1616;-77
2023/03/19 03:10:58;;;;;;;;;;;;;;;9.51;92.79;101013.00;4946428;28;2075;-76
2023/03/19 03:13:24;;;;;;;;;;;;;;;9.50;92.91;101007.00;4947999;28;2335;-76
2023/03/19 03:15:50;;;;;;;;;;;;;;;9.48;92.71;101008.91;4952737;28;1407;-76
2023/03/19 03:18:16;;;;;;;;;;;;;;;9.48;93.20;101014.06;4961311;28;1442;-76
2023/03/19 03:20:42;;;;;;;;;;;;;;;9.48;93.20;101003.72;4952828;28;1362;-76
2023/03/19 03:23:07;;;;;;;;;;;;;;;9.48;93.26;101011.47;4940646;28;1902;-77
2023/03/19 03:25:32;;;;;;;;;;;;;;;9.47;93.13;101015.00;4960329;28;1237;-76
2023/03/19 03:27:57;;;;;;;;;;;;;;;9.47;93.56;101009.00;4936467;29;1374;-76
2023/03/19 03:30:23;;;;;;;;;;;;;;;9.48;93.80;101019.25;4934745;28;1525;-76
2023/03/19 03:32:48;;;;;;;;;;;;;;;9.45;92.53;101014.28;4952920;28;1237;-76
2023/03/19 03:35:20;;;;;;;;;;;;;;;9.48;93.60;101011.47;4961761;28;1290;-76
2023/03/19 03:37:45;;;;;;;;;;;;;;;9.47;93.21;101017.59;4934798;28;1313;-76
2023/03/19 03:40:11;;;;;;;;;;;;;;;9.48;93.88;101014.06;4933796;28;1556;-76
2023/03/19 03:42:36;;;;;;;;;;;;;;;9.48;93.84;101005.47;4948887;28;2942;-76
2023/03/19 03:45:02;;;;;;;;;;;;;;;9.45;93.58;101009.09;4955782;28;1479;-76
2023/03/19 03:47:27;;;;;;;;;;;;;;;9.49;93.07;101015.72;4946316;28;1941;-76
2023/03/19 03:49:52;;;;;;;;;;;;;;;9.44;93.78;101017.81;4954613;28;1227;-76
2023/03/19 03:52:20;;;;;;;;;;;;;;;9.42;94.27;101013.72;4954760;28;1362;-76
2023/03/19 03:54:45;;;;;;;;;;;;;;;9.41;94.16;101018.06;4957240;28;1358;-76
2023/03/19 03:57:11;;;;;;;;;;;;;;;9.40;93.91;101015.56;4955811;28;1420;-77
2023/03/19 03:59:36;;;;;;;;;;;;;;;9.36;93.50;101020.16;4951098;28;1737;-76
2023/03/19 04:02:01;;;;;;;;;;;;;;;9.32;94.22;101018.72;4936237;28;5207;-76
2023/03/19 04:04:26;;;;;;;;;;;;;;;9.30;94.58;101018.03;4956468;28;1320;-76
2023/03/19 04:06:51;;;;;;;;;;;;;;;9.24;93.74;101021.88;4934383;28;1414;-76
2023/03/19 04:09:17;;;;;;;;;;;;;;;9.23;94.13;101024.56;4936453;29;2474;-77
2023/03/19 04:11:42;;;;;;;;;;;;;;;9.23;94.46;101024.56;4952107;28;1259;-76
2023/03/19 04:14:10;;;;;;;;;;;;;;;9.21;94.56;101021.25;4957628;28;1355;-77
2023/03/19 04:16:36;;;;;;;;;;;;;;;9.19;94.50;101017.97;4950500;28;1299;-77
2023/03/19 04:19:01;;;;;;;;;;;;;;;9.17;94.17;101017.25;4954120;28;1326;-76
2023/03/19 04:21:27;;;;;;;;;;;;;;;9.16;94.61;101023.34;4938487;28;1383;-76
2023/03/19 04:23:52;;;;;;;;;;;;;;;9.14;94.30;101020.88;4949639;28;1894;-76
2023/03/19 04:26:18;;;;;;;;;;;;;;;9.12;94.35;101016.75;4961601;28;1317;-76
2023/03/19 04:28:43;;;;;;;;;;;;;;;9.07;94.59;101022.28;4954000;28;1245;-77
2023/03/19 04:31:09;;;;;;;;;;;;;;;9.09;94.94;101040.28;4950508;28;1237;-76
2023/03/19 04:33:35;;;;;;;;;;;;;;;9.07;94.99;101032.63;4949031;28;1275;-76
2023/03/19 04:36:00;;;;;;;;;;;;;;;9.08;94.81;101036.03;4933807;28;1532;-76
2023/03/19 04:38:26;;;;;;;;;;;;;;;9.04;95.06;101041.41;4949515;28;1258;-76
2023/03/19 04:40:52;;;;;;;;;;;;;;;9.03;94.91;101037.19;4956536;28;1418;-76
2023/03/19 04:43:17;;;;;;;;;;;;;;;9.03;94.55;101039.78;4951735;28;1899;-76
2023/03/19 04:45:42;;;;;;;;;;;;;;;9.03;94.84;101044.13;4958548;28;1183;-76
2023/03/19 04:48:07;;;;;;;;;;;;;;;9.00;95.05;101045.19;4954539;28;1465;-76
2023/03/19 04:50:33;;;;;;;;;;;;;;;9.00;95.62;101039.16;4961835;28;1389;-76
2023/03/19 04:52:58;;;;;;;;;;;;;;;9.00;95.23;101044.31;4953882;28;1322;-76
2023/03/19 04:55:24;;;;;;;;;;;;;;;8.97;95.32;101040.22;4949910;28;1633;-76
2023/03/19 04:57:49;;;;;;;;;;;;;;;8.98;95.31;101041.84;4936457;29;1434;-76
2023/03/19 05:00:15;;;;;;;;;;;;;;;8.97;95.12;101047.97;4945329;28;5068;-76
2023/03/19 05:02:41;;;;;;;;;;;;;;;8.95;95.86;101052.44;4950722;28;1906;-76
2023/03/19 05:05:07;;;;;;;;;;;;;;;8.95;95.73;101051.63;4933990;28;2454;-76
2023/03/19 05:07:32;;;;;;;;;;;;;;;8.93;95.86;101054.28;4950613;28;1994;-76
2023/03/19 05:09:57;;;;;;;;;;;;;;;8.93;95.61;101056.88;4951561;28;1501;-76
2023/03/19 05:12:23;;;;;;;;;;;;;;;8.93;95.91;101054.28;4958092;28;1471;-76
2023/03/19 05:14:48;;;;;;;;;;;;;;;8.92;95.74;101060.41;4951117;28;1183;-76
2023/03/19 05:17:14;;;;;;;;;;;;;;;8.91;95.92;101058.75;4950822;28;1334;-76
2023/03/19 05:19:39;;;;;;;;;;;;;;;8.90;95.89;101067.47;4949962;28;1326;-76
2023/03/19 05:22:05;;;;;;;;;;;;;;;8.89;96.04;101068.41;4948065;28;1886;-76
2023/03/19 05:24:30;;;;;;;;;;;;;;;8.87;96.13;101065.06;4934399;28;1302;-76
2023/03/19 05:26:56;;;;;;;;;;;;;;;8.85;96.13;101061.78;4954715;28;1259;-76
2023/03/19 05:29:21;;;;;;;;;;;;;;;8.86;95.90;101062.59;4949520;28;1421;-76
2023/03/19 05:31:46;;;;;;;;;;;;;;;8.84;95.60;101069.66;4950248;28;1199;-76
2023/03/19 05:34:12;;;;;;;;;;;;;;;8.78;95.28;101066.56;4929545;28;1473;-76
2023/03/19 05:36:37;;;;;;;;;;;;;;;8.77;95.62;101066.66;4953783;28;1445;-76
2023/03/19 05:39:03;;;;;;;;;;;;;;;8.77;95.96;101074.41;4952372;28;1430;-76
2023/03/19 05:41:28;;;;;;;;;;;;;;;8.78;96.43;101070.91;4936126;28;1535;-76
2023/03/19 05:43:53;;;;;;;;;;;;;;;8.78;96.39;101073.50;4949814;28;1971;-76
2023/03/19 05:46:18;;;;;;;;;;;;;;;8.78;95.93;101076.91;4949980;28;1296;-76
2023/03/19 05:48:44;;;;;;;;;;;;;;;8.78;96.39;101082.06;4952393;28;1301;-77
2023/03/19 05:51:10;;;;;;;;;;;;;;;8.79;95.78;101088.06;4939340;28;1596;-76
2023/03/19 05:53:35;;;;;;;;;;;;;;;8.78;95.72;101101.94;4930868;28;1213;-76
2023/03/19 05:56:00;;;;;;;;;;;;;;;8.78;96.15;101097.59;4944163;28;1347;-76
2023/03/19 05:58:27;;;;;;;;;;;;;;;8.78;96.24;101101.94;4950226;28;1354;-76
2023/03/19 06:00:54;;;;;;;;;;;;;;;8.79;96.13;101098.41;4953956;28;5035;-76
2023/03/19 06:03:20;;;;;;;;;;;;;;;8.79;96.33;101101.00;4953612;28;1882;-76
2023/03/19 06:05:47;;;;;;;;;;;;;;;8.76;96.19;101111.53;4951214;28;1587;-76
2023/03/19 06:08:12;;;;;;;;;;;;;;;8.74;96.24;101108.25;4952687;28;1440;-76
2023/03/19 06:10:37;;;;;;;;;;;;;;;8.76;95.97;101109.78;4955613;28;1352;-77
2023/03/19 06:13:04;;;;;;;;;;;;;;;8.75;96.19;101112.47;4936960;28;1495;-76
2023/03/19 06:15:29;;;;;;;;;;;;;;;8.76;96.14;101119.31;4936479;28;1207;-76
2023/03/19 06:17:54;;;;;;;;;;;;;;;8.78;95.55;101122.63;4957964;28;1476;-76
2023/03/19 06:20:19;;;;;;;;;;;;;;;8.79;96.48;101121.69;4943798;28;1592;-76
2023/03/19 06:22:45;;;;;;;;;;;;;;;8.78;95.95;101127.81;4949334;28;1965;-76
2023/03/19 06:25:10;;;;;;;;;;;;;;;8.79;96.09;101132.03;4949962;28;1192;-76
2023/03/19 06:27:36;;;;;;;;;;;;;;;8.80;96.24;101131.09;4933581;28;1504;-76
2023/03/19 06:30:01;;;;;;;;;;;;;;;8.77;96.07;101120.94;4936920;28;1305;-76
2023/03/19 06:32:26;;;;;;;;;;;;;;;8.75;96.91;101128.81;4953219;28;1489;-76
2023/03/19 06:34:52;;;;;;;;;;;;;;;8.72;96.36;101128.22;4931042;29;1538;-76
2023/03/19 06:37:17;;;;;;;;;;;;;;;8.69;96.56;101128.44;4952877;28;1309;-76
2023/03/19 06:39:43;;;;;;;;;;;;;;;8.67;96.44;101130.31;4947442;28;1210;-76
2023/03/19 06:42:08;;;;;;;;;;;;;;;8.65;97.00;101137.31;4935818;28;1966;-76
2023/03/19 06:44:33;;;;;;;;;;;;;;;8.66;97.15;101138.97;4938169;28;1689;-76
2023/03/19 06:46:58;;;;;;;;;;;;;;;8.66;97.01;101138.97;4955823;28;1500;-76
2023/03/19 06:49:24;;;;;;;;;;;;;;;8.68;97.10;101147.47;4957948;28;1721;-76
2023/03/19 06:51:49;;;;;;;;;;;;;;;8.67;96.57;101145.81;4950182;28;1198;-77
2023/03/19 06:54:15;;;;;;;;;;;;;;;8.67;96.97;101156.16;4952998;28;1418;-76
2023/03/19 06:56:40;;;;;;;;;;;;;;;8.66;96.81;101157.91;4953132;28;2095;-77
2023/03/19 06:59:05;;;;;;;;;;;;;;;8.65;97.11;101169.16;4936244;28;1488;-76
2023/03/19 07:01:30;;;;;;;;;;;;;;;8.67;97.40;101163.91;4932847;28;5064;-76
2023/03/19 07:03:56;;;;;;;;;;;;;;;8.69;97.48;101173.22;4937275;29;1898;-76
2023/03/19 07:06:21;;;;;;;;;;;;;;;8.71;97.29;101173.09;4954624;28;1302;-76
2023/03/19 07:08:46;;;;;;;;;;;;;;;8.75;97.68;101174.56;4947927;28;1414;-76
2023/03/19 07:11:12;;;;;;;;;;;;;;;8.78;97.38;101171.78;4965428;28;1299;-76
2023/03/19 07:13:37;;;;;;;;;;;;;;;8.81;97.17;101179.31;4956348;28;1364;-76
2023/03/19 07:16:03;;;;;;;;;;;;;;;8.82;97.23;101180.94;4951514;28;1996;-77
2023/03/19 07:18:28;;;;;;;;;;;;;;;8.83;97.29;101168.84;4941071;28;1297;-76
2023/03/19 07:20:53;;;;;;;;;;;;;;;8.81;98.01;101179.31;4955872;28;1447;-76
2023/03/19 07:23:18;;;;;;;;;;;;;;;8.85;97.72;101175.59;4956808;28;1949;-76
2023/03/19 07:25:44;;;;;;;;;;;;;;;8.91;98.11;101185.50;4956871;28;1193;-76
2023/03/19 07:28:10;;;;;;;;;;;;;;;8.99;98.01;101188.38;4937150;28;1525;-76
2023/03/19 07:30:37;;;;;;;;;;;;;;;9.02;97.91;101193.34;4934445;28;1454;-76
2023/03/19 07:33:02;;;;;;;;;;;;;;;9.11;97.55;101193.63;4953242;28;1527;-76
2023/03/19 07:35:27;;;;;;;;;;;;;;;9.10;98.06;101194.56;4940728;28;2524;-76
2023/03/19 07:37:52;;;;;;;;;;;;;;;9.26;98.15;101195.16;4953309;28;1203;-77
2023/03/19 07:40:17;;;;;;;;;;;;;;;9.19;98.06;101194.78;4955415;28;1314;-76
2023/03/19 07:42:43;;;;;;;;;;;;;;;9.23;98.62;101196.22;4932473;28;1903;-76
2023/03/19 07:45:08;;;;;;;;;;;;;;;9.26;98.45;101200.34;4952362;28;1444;-76
2023/03/19 07:47:33;;;;;;;;;;;;;;;9.24;98.12;101191.88;4943142;28;1484;-76
2023/03/19 07:49:59;;;;;;;;;;;;;;;9.25;98.58;101193.53;4954099;28;1367;-77
2023/03/19 07:52:24;;;;;;;;;;;;;;;9.29;97.69;101200.16;4953411;28;1382;-76
2023/03/19 07:54:51;;;;;;;;;;;;;;;9.39;98.09;101201.13;4953274;28;2028;-76
2023/03/19 07:57:16;;;;;;;;;;;;;;;9.32;98.11;101197.31;4952548;28;1343;-77
2023/03/19 07:59:41;;;;;;;;;;;;;;;9.36;98.29;101200.53;4938520;28;1306;-76
2023/03/19 08:02:10;;;;;;;;;;;;;;;9.32;98.11;101207.69;4952376;28;5011;-76
2023/03/19 08:04:35;;;;;;;;;;;;;;;9.37;98.32;101203.00;4941567;28;1347;-76
2023/03/19 08:07:00;;;;;;;;;;;;;;;9.46;98.34;101206.69;4951825;28;1272;-76
2023/03/19 08:09:26;;;;;;;;;;;;;;;9.49;98.47;101215.09;4944042;28;1451;-76
2023/03/19 08:11:51;;;;;;;;;;;;;;;9.58;98.32;101216.22;4946467;28;1314;-76
2023/03/19 08:14:21;;;;;;;;;;;;;;;9.67;98.26;101212.13;4948488;28;1291;-76
2023/03/19 08:16:46;;;;;;;;;;;;;;;9.77;98.00;101215.72;4949962;28;1326;-76
2023/03/19 08:19:12;;;;;;;;;;;;;;;9.86;98.48;101209.84;4949718;28;1352;-77
2023/03/19 08:21:37;;;;;;;;;;;;;;;9.90;98.01;101224.25;4950840;28;1322;-76
2023/03/19 08:24:02;;;;;;;;;;;;;;;9.93;97.62;101224.03;4955462;28;1976;-76
2023/03/19 08:26:27;;;;;;;;;;;;;;;10.00;97.46;101227.81;4952795;28;1196;-76
2023/03/19 08:28:54;;;;;;;;;;;;;;;9.96;97.45;101236.75;4949186;28;1227;-76
2023/03/19 08:31:19;;;;;;;;;;;;;;;9.98;96.99;101240.06;4956722;28;1401;-76
2023/03/19 08:33:44;;;;;;;;;;;;;;;10.05;97.30;101236.09;4942106;28;1182;-77
2023/03/19 08:36:11;;;;;;;;;;;;;;;10.13;96.67;101237.28;4951351;28;1536;-76
2023/03/19 08:38:36;;;;;;;;;;;;;;;10.21;97.14;101245.34;4941658;28;1275;-77
2023/03/19 08:41:03;;;;;;;;;;;;;;;10.20;96.20;101238.50;4953139;28;1218;-76
2023/03/19 08:43:32;;;;;;;;;;;;;;;10.19;96.18;101242.84;4958559;28;1906;-76
2023/03/19 08:45:57;;;;;;;;;;;;;;;10.21;96.17;101240.16;4947236;28;1382;-76
2023/03/19 08:48:22;;;;;;;;;;;;;;;10.23;96.16;101248.66;4947988;28;1187;-76
2023/03/19 08:50:54;;;;;;;;;;;;;;;10.30;96.19;101252.47;4947204;28;2065;-76
2023/03/19 08:53:20;;;;;;;;;;;;;;;10.29;95.70;101254.25;4941438;28;1259;-76
2023/03/19 08:55:49;;;;;;;;;;;;;;;10.31;95.84;101251.53;4942699;28;1438;-76
2023/03/19 08:58:15;;;;;;;;;;;;;;;10.30;94.93;101257.66;4939609;28;1248;-76
2023/03/19 09:00:40;;;;;;;;;;;;;;;10.31;95.06;101254.13;4946727;28;4822;-76
2023/03/19 09:03:05;;;;;;;;;;;;;;;10.37;95.16;101262.28;4948095;28;1982;-77
2023/03/19 09:05:30;;;;;;;;;;;;;;;10.42;94.78;101259.34;4949750;28;1425;-76
2023/03/19 09:07:56;;;;;;;;;;;;;;;10.47;94.80;101257.25;4950984;28;1192;-76
2023/03/19 09:10:21;;;;;;;;;;;;;;;10.53;94.97;101264.56;4948464;28;1341;-76
2023/03/19 09:12:46;;;;;;;;;;;;;;;10.63;94.40;101262.94;4945874;28;1551;-76
2023/03/19 09:15:11;;;;;;;;;;;;;;;10.67;94.82;101260.09;4950559;28;1354;-76
2023/03/19 09:17:36;;;;;;;;;;;;;;;10.71;94.19;101264.94;4932082;28;1333;-77
2023/03/19 09:20:02;;;;;;;;;;;;;;;10.73;94.04;101257.06;4948626;28;1433;-76
2023/03/19 09:22:27;;;;;;;;;;;;;;;10.82;94.38;101261.56;4955684;28;2162;-76
2023/03/19 09:24:52;;;;;;;;;;;;;;;10.95;93.15;101271.81;4947142;28;1333;-76
2023/03/19 09:27:18;;;;;;;;;;;;;;;10.96;93.76;101279.50;4948072;28;1395;-77
2023/03/19 09:29:43;;;;;;;;;;;;;;;11.33;91.08;101284.47;4952166;28;1366;-77
2023/03/19 09:32:22;;;;;;;;;;;;;;;11.00;91.76;101270.53;4953663;28;1556;-78
2023/03/19 09:35:00;;;;;;;;;;;;;;;11.13;91.69;101286.84;4967811;28;1469;-77
2023/03/19 09:37:25;;;;;;;;;;;;;;;11.10;91.60;101288.84;4953473;28;1456;-77
2023/03/19 09:39:50;;;;;;;;;;;;;;;11.06;91.36;101296.00;4950900;28;1316;-76
2023/03/19 09:42:31;;;;;;;;;;;;;;;11.08;91.85;101299.34;4947959;28;1914;-77
2023/03/19 09:44:56;;;;;;;;;;;;;;;11.09;91.18;101303.59;4950512;28;1171;-76
2023/03/19 09:47:22;;;;;;;;;;;;;;;11.04;90.16;101308.28;4950919;28;2152;-76
2023/03/19 09:49:49;;;;;;;;;;;;;;;10.94;90.79;101306.50;4932038;28;1359;-77
2023/03/19 09:52:24;;;;;;;;;;;;;;;10.87;91.38;101311.34;4936675;28;1366;-75
2023/03/19 09:54:51;;;;;;;;;;;;;;;10.89;91.20;101319.81;4946280;28;1291;-75
2023/03/19 09:57:17;;;;;;;;;;;;;;;10.79;91.11;101314.50;4950168;28;1178;-76
2023/03/19 09:59:42;;;;;;;;;;;;;;;10.83;90.93;101330.66;4954480;28;1480;-75
2023/03/19 10:02:10;;;;;;;;;;;;;;;10.83;91.35;101320.28;4950578;28;4824;-76
2023/03/19 10:04:41;;;;;;;;;;;;;;;10.87;91.02;101317.34;4944580;28;1442;-76
2023/03/19 10:07:25;;;;;;;;;;;;;;;10.86;91.66;101325.25;4951288;28;1189;-76
2023/03/19 10:10:01;;;;;;;;;;;;;;;10.91;91.35;101317.97;4953890;28;1629;-75
2023/03/19 10:12:44;;;;;;;;;;;;;;;11.05;91.02;101322.91;4954886;28;1205;-75
2023/03/19 10:15:19;;;;;;;;;;;;;;;11.08;91.85;101325.31;4949225;28;1330;-75
2023/03/19 10:18:03;;;;;;;;;;;;;;;11.19;91.49;101321.06;4954087;28;1162;-75
2023/03/19 10:20:29;;;;;;;;;;;;;;;11.32;91.51;101320.00;4946170;28;1448;-76
2023/03/19 10:22:59;;;;;;;;;;;;;;;11.35;89.82;101327.53;4948528;28;2107;-77
2023/03/19 10:25:26;;;;;;;;;;;;;;;11.35;90.31;101321.53;4948853;28;1250;-76
2023/03/19 10:28:10;;;;;;;;;;;;;;;11.40;90.32;101320.22;4950168;28;1093;-76
2023/03/19 10:30:36;;;;;;;;;;;;;;;11.54;90.01;101321.78;4952953;28;1172;-75
2023/03/19 10:33:20;;;;;;;;;;;;;;;11.69;90.82;101319.72;4958405;28;1220;-75
2023/03/19 10:35:48;;;;;;;;;;;;;;;11.83;90.47;101316.09;4956514;28;1404;-75
2023/03/19 10:38:19;;;;;;;;;;;;;;;11.89;88.71;101326.00;4951777;28;1267;-76
2023/03/19 10:40:50;;;;;;;;;;;;;;;11.92;89.02;101330.94;4942371;28;1255;-75
2023/03/19 10:43:21;;;;;;;;;;;;;;;11.97;89.28;101323.63;4935723;28;2350;-76
2023/03/19 10:45:48;;;;;;;;;;;;;;;12.03;87.99;101328.31;4945340;28;1259;-76
2023/03/19 10:48:15;;;;;;;;;;;;;;;12.05;88.34;101339.44;4943013;28;1459;-75
2023/03/19 10:50:46;;;;;;;;;;;;;;;12.11;87.79;101343.34;4945194;28;1613;-76
2023/03/19 10:53:11;;;;;;;;;;;;;;;12.03;86.83;101341.31;4943593;28;1223;-76
2023/03/19 10:55:37;;;;;;;;;;;;;;;11.97;87.08;101339.22;4946565;28;1394;-76
2023/03/19 10:58:04;;;;;;;;;;;;;;;12.05;87.40;101341.22;4957333;28;1118;-76
2023/03/19 11:00:32;;;;;;;;;;;;;;;12.08;87.60;101352.19;4951817;28;5040;-76
2023/03/19 11:02:58;;;;;;;;;;;;;;;12.12;87.40;101351.00;4947843;28;1902;-76
2023/03/19 11:05:27;;;;;;;;;;;;;;;12.16;86.78;101360.22;4936041;28;1504;-76
2023/03/19 11:08:00;;;;;;;;;;;;;;;12.07;87.36;101354.91;4957656;28;1315;-76
2023/03/19 11:10:27;;;;;;;;;;;;;;;12.06;86.73;101359.28;4937875;29;1438;-75
2023/03/19 11:12:56;;;;;;;;;;;;;;;12.13;86.43;101365.66;4955313;28;1476;-76
2023/03/19 11:15:22;;;;;;;;;;;;;;;12.03;86.83;101361.31;4937381;28;1439;-75
2023/03/19 11:17:55;;;;;;;;;;;;;;;11.98;85.96;101368.63;4935711;28;1396;-75
2023/03/19 11:20:22;;;;;;;;;;;;;;;11.92;87.30;101372.53;4934927;28;1497;-75
2023/03/19 11:22:51;;;;;;;;;;;;;;;11.88;86.75;101371.16;4948839;28;1899;-75
2023/03/19 11:25:18;;;;;;;;;;;;;;;12.03;86.22;101369.09;4952834;28;1226;-75
2023/03/19 11:27:56;;;;;;;;;;;;;;;11.86;87.15;101383.41;4955101;28;1222;-75
2023/03/19 11:30:21;;;;;;;;;;;;;;;11.86;87.21;101378.22;4952658;28;1538;-75
2023/03/19 11:32:52;;;;;;;;;;;;;;;11.89;86.69;101388.41;4962422;28;1301;-75
2023/03/19 11:35:24;;;;;;;;;;;;;;;11.78;86.74;101385.78;4952246;28;1410;-75
2023/03/19 11:37:53;;;;;;;;;;;;;;;11.73;86.39;101382.69;4957622;28;2108;-75
2023/03/19 11:40:37;;;;;;;;;;;;;;;11.74;86.18;101384.34;4936052;28;1681;-75
2023/03/19 11:43:05;;;;;;;;;;;;;;;11.72;86.64;101391.44;4942898;28;1911;-75
2023/03/19 11:45:42;;;;;;;;;;;;;;;11.78;86.24;101384.00;4951600;28;1428;-75
2023/03/19 11:48:20;;;;;;;;;;;;;;;11.78;86.34;101388.38;4951297;28;1138;-75
2023/03/19 11:50:51;;;;;;;;;;;;;;;11.77;86.07;101384.13;4954163;28;1328;-75
2023/03/19 11:53:35;;;;;;;;;;;;;;;11.87;86.34;101390.25;4949628;28;1412;-76
2023/03/19 11:56:16;;;;;;;;;;;;;;;12.04;86.44;101376.78;4937111;28;1287;-75
2023/03/19 11:58:47;;;;;;;;;;;;;;;12.02;85.26;101378.69;4949950;28;1401;-75
2023/03/19 12:01:34;;;;;;;;;;;;;;;12.13;84.53;101376.06;4952619;28;4995;-74
2023/03/19 12:04:15;;;;;;;;;;;;;;;12.10;83.79;101386.72;4947944;28;1965;-75
2023/03/19 12:06:59;;;;;;;;;;;;;;;12.11;84.34;101372.75;4953357;28;1305;-76
2023/03/19 12:09:45;;;;;;;;;;;;;;;12.19;84.62;101378.16;4951812;28;1251;-75
2023/03/19 12:12:23;;;;;;;;;;;;;;;12.17;84.22;101377.47;4955453;28;1232;-75
2023/03/19 12:14:51;;;;;;;;;;;;;;;12.17;84.93;101382.69;4952583;28;1194;-76
2023/03/19 12:17:17;;;;;;;;;;;;;;;12.14;85.20;101382.91;4954048;28;1246;-75
2023/03/19 12:19:53;;;;;;;;;;;;;;;12.16;83.72;101381.03;4933380;29;1527;-76
2023/03/19 12:22:27;;;;;;;;;;;;;;;12.12;84.13;101379.59;4950989;28;1952;-75
2023/03/19 12:24:53;;;;;;;;;;;;;;;12.18;83.78;101379.13;4950358;28;1409;-76
2023/03/19 12:27:33;;;;;;;;;;;;;;;12.19;83.66;101370.38;4936795;28;1565;-76
2023/03/19 12:30:08;;;;;;;;;;;;;;;12.17;83.07;101372.28;4954026;28;1181;-76
2023/03/19 12:32:45;;;;;;;;;;;;;;;12.23;83.71;101370.97;4949963;28;1283;-77
2023/03/19 12:35:23;;;;;;;;;;;;;;;12.31;83.75;101367.75;4949512;28;2161;-76
2023/03/19 12:38:04;;;;;;;;;;;;;;;12.38;82.35;101368.88;4946767;28;1157;-76
2023/03/19 12:40:49;;;;;;;;;;;;;;;12.39;81.92;101365.38;4949043;28;1451;-75
2023/03/19 12:43:20;;;;;;;;;;;;;;;12.55;82.12;101360.53;4934808;28;1964;-76
2023/03/19 12:45:57;;;;;;;;;;;;;;;12.76;82.18;101356.19;4940598;28;1460;-77
2023/03/19 12:48:26;;;;;;;;;;;;;;;12.70;81.65;101361.91;4940812;28;1573;-76
2023/03/19 12:50:55;;;;;;;;;;;;;;;12.83;82.68;101359.13;4949280;28;1332;-75
2023/03/19 12:53:29;;;;;;;;;;;;;;;12.92;82.01;101365.34;4946857;28;1200;-76